Detall de PIREP

Printer-friendly versionPDF version

[2013/02/01 13:11:00]
Flight IATA:CT1003
Pilot Number:012
Company ICAO:CAT
Aircraft Type:B738/F
PAX:160
Departing Airport: LEBL
Destination Airport: LFRS
Alternate Airport:LFPO
Online: VATSIM
Route:MOPAS UN863 MANAK
Flight Level:F300
No Slew and time accel
No pause
Crash detect
Detect pilot in Cockpit between each 30 and 45 minutes
13:11 Zero fuel Weight: 131623 Lbs, Fuel Weight: 20474 Lbs
13:11 VATSIM:LEBL 011900Z 26011KT 230V300 9999 FEW025 15/10 Q1009 NOSIG
13:11 VATSIM:LFRS 011900Z 33009KT 300V360 8000 -RA SCT026 BKN040 07/06 Q1003 NOSIG
13:12 VOICE CATALONIAN / CPT LFRS
13:12 Parking Brakes off
13:17 Take-off
13:17 Take off Weight: 151440 Lbs
13:17 Wind: 267º @ 011 Knots Heading: 246º
13:17 POS N41º 17´ 04´´ E002º 04´ 52´´
13:17 Gear Up: 163 Knots
13:17 Flaps:3 at 163 Knots
13:17 Flaps:2 at 186 Knots
13:18 Flaps:1 at 215 Knots
13:27 Flaps:0 at 244 Knots
13:32 Wind:263º@070 Knots Heading: 324º Ground Speed: 438 Knots Altitude 28205 ft
13:33 TOC
13:33 Fuel Weight: 16390 Lb
13:47 Wind:263º@097 Knots Heading: 325º Ground Speed: 430 Knots Altitude 29812 ft
14:02 Wind:263º@104 Knots Heading: 324º Ground Speed: 427 Knots Altitude 29688 ft
14:03 TOD
14:03 Fuel Weight: 13151 Lb
14:11 Flaps:1 at 247 Knots
14:12 Flaps:2 at 215 Knots
14:17 Wind:275º@041 Knots Heading: 318º Ground Speed: 211 Knots Altitude 4977 ft
14:17 Flaps:3 at 225 Knots
14:19 Flaps:4 at 202 Knots
14:19 Flaps:5 at 186 Knots
14:20 Gear Down: 185 Knots
14:20 Flaps:6 at 170 Knots
14:21 Flaps:7 at 160 Knots
14:21 Flaps:8 at 148 Knots
14:23 TouchDown:Rate -177 ft/min Speed: 122 Knots
14:23 Flaps:7 at 71 Knots
14:23 Flaps:3 at 56 Knots
14:23 VATSIM:LFRS 012000Z 32007KT 300V360 9999 FEW020 SCT043 BKN066 07/06 Q1004 NOSIG
14:23 Land
14:23 Wind:322º@008 Knots
14:23 Heading: 027º
14:23 Flight Duration: 01:06
14:23 Landing Weight: 143530 Lbs
14:23 POS N47º 09´ 22´´ W001º 36´ 30´´
14:25 Parking brakes on
14:25 Block to Block Duration: 01:13
14:25 Final Fuel: 11735 Lbls
14:25 Spent Fuel: 8738 Lbls
14:25 Flight Length: 396 NM
14:25 TOD Land Length: 92 NM

Exportar CSV

Powered by Drupal - Modified by Danger4k